sensor_id;sensor_type;location;lat;lon;timestamp;P1;durP1;ratioP1;P2;durP2;ratioP2
61433;SDS011;47300;46.192;9.000;2022-12-16T00:01:30;15.00;;;7.05;;
61433;SDS011;47300;46.192;9.000;2022-12-16T00:03:56;14.55;;;6.97;;
61433;SDS011;47300;46.192;9.000;2022-12-16T00:06:24;9.32;;;5.70;;
61433;SDS011;47300;46.192;9.000;2022-12-16T00:08:51;6.63;;;3.33;;
61433;SDS011;47300;46.192;9.000;2022-12-16T00:11:16;8.80;;;4.40;;
61433;SDS011;47300;46.192;9.000;2022-12-16T00:13:42;21.13;;;9.93;;
61433;SDS011;47300;46.192;9.000;2022-12-16T00:16:08;12.27;;;6.40;;
61433;SDS011;47300;46.192;9.000;2022-12-16T00:18:37;13.73;;;7.22;;
61433;SDS011;47300;46.192;9.000;2022-12-16T00:21:03;29.00;;;13.02;;
61433;SDS011;47300;46.192;9.000;2022-12-16T00:23:29;14.57;;;7.70;;
61433;SDS011;47300;46.192;9.000;2022-12-16T00:25:54;10.85;;;5.75;;
61433;SDS011;47300;46.192;9.000;2022-12-16T00:28:20;11.13;;;5.40;;
61433;SDS011;47300;46.192;9.000;2022-12-16T00:30:49;8.90;;;4.63;;
61433;SDS011;47300;46.192;9.000;2022-12-16T00:33:16;9.70;;;4.38;;
61433;SDS011;47300;46.192;9.000;2022-12-16T00:35:42;8.05;;;4.25;;
61433;SDS011;47300;46.192;9.000;2022-12-16T00:38:07;8.10;;;3.72;;
61433;SDS011;47300;46.192;9.000;2022-12-16T00:40:33;7.03;;;2.92;;
61433;SDS011;47300;46.192;9.000;2022-12-16T00:42:58;12.63;;;5.82;;
61433;SDS011;47300;46.192;9.000;2022-12-16T00:45:24;8.85;;;4.57;;
61433;SDS011;47300;46.192;9.000;2022-12-16T00:47:49;5.68;;;2.65;;
61433;SDS011;47300;46.192;9.000;2022-12-16T00:50:15;5.22;;;2.70;;
61433;SDS011;47300;46.192;9.000;2022-12-16T00:52:41;6.28;;;2.17;;
61433;SDS011;47300;46.192;9.000;2022-12-16T00:55:06;6.22;;;2.50;;
61433;SDS011;47300;46.192;9.000;2022-12-16T00:57:32;12.02;;;3.10;;
61433;SDS011;47300;46.192;9.000;2022-12-16T00:59:57;4.72;;;1.95;;
61433;SDS011;47300;46.192;9.000;2022-12-16T01:02:23;5.78;;;2.30;;
61433;SDS011;47300;46.192;9.000;2022-12-16T01:04:48;4.57;;;2.17;;
61433;SDS011;47300;46.192;9.000;2022-12-16T01:07:14;5.40;;;2.53;;
61433;SDS011;47300;46.192;9.000;2022-12-16T01:09:39;4.22;;;2.03;;
61433;SDS011;47300;46.192;9.000;2022-12-16T01:12:04;3.97;;;2.00;;
61433;SDS011;47300;46.192;9.000;2022-12-16T01:14:30;5.45;;;2.50;;
61433;SDS011;47300;46.192;9.000;2022-12-16T01:16:56;7.07;;;3.15;;
61433;SDS011;47300;46.192;9.000;2022-12-16T01:19:21;8.10;;;3.83;;
61433;SDS011;47300;46.192;9.000;2022-12-16T01:21:46;5.53;;;2.67;;
61433;SDS011;47300;46.192;9.000;2022-12-16T01:24:12;5.55;;;2.50;;
61433;SDS011;47300;46.192;9.000;2022-12-16T01:26:37;6.13;;;2.83;;
61433;SDS011;47300;46.192;9.000;2022-12-16T01:29:03;7.10;;;3.38;;
61433;SDS011;47300;46.192;9.000;2022-12-16T01:31:29;6.10;;;2.83;;
61433;SDS011;47300;46.192;9.000;2022-12-16T01:33:54;6.38;;;2.92;;
61433;SDS011;47300;46.192;9.000;2022-12-16T01:36:19;6.63;;;3.17;;
61433;SDS011;47300;46.192;9.000;2022-12-16T01:38:45;8.38;;;4.03;;
61433;SDS011;47300;46.192;9.000;2022-12-16T01:41:12;10.45;;;5.22;;
61433;SDS011;47300;46.192;9.000;2022-12-16T01:43:39;11.48;;;5.90;;
61433;SDS011;47300;46.192;9.000;2022-12-16T01:51:32;10.25;;;6.13;;
61433;SDS011;47300;46.192;9.000;2022-12-16T01:54:05;14.20;;;6.80;;
61433;SDS011;47300;46.192;9.000;2022-12-16T01:56:32;10.20;;;4.93;;
61433;SDS011;47300;46.192;9.000;2022-12-16T01:58:59;8.40;;;4.47;;
61433;SDS011;47300;46.192;9.000;2022-12-16T02:01:26;8.52;;;3.83;;
61433;SDS011;47300;46.192;9.000;2022-12-16T02:03:51;11.00;;;5.22;;
61433;SDS011;47300;46.192;9.000;2022-12-16T02:06:20;11.85;;;5.28;;
61433;SDS011;47300;46.192;9.000;2022-12-16T02:08:46;14.02;;;6.78;;
61433;SDS011;47300;46.192;9.000;2022-12-16T02:16:54;12.00;;;6.45;;
61433;SDS011;47300;46.192;9.000;2022-12-16T02:19:40;14.52;;;7.75;;
61433;SDS011;47300;46.192;9.000;2022-12-16T02:31:06;16.13;;;8.63;;
61433;SDS011;47300;46.192;9.000;2022-12-16T02:39:42;16.63;;;8.35;;
61433;SDS011;47300;46.192;9.000;2022-12-16T02:44:39;17.48;;;8.75;;
61433;SDS011;47300;46.192;9.000;2022-12-16T02:47:12;16.33;;;7.57;;
61433;SDS011;47300;46.192;9.000;2022-12-16T02:49:42;18.33;;;7.97;;
61433;SDS011;47300;46.192;9.000;2022-12-16T02:52:10;15.82;;;7.88;;
61433;SDS011;47300;46.192;9.000;2022-12-16T02:54:37;16.83;;;7.65;;
61433;SDS011;47300;46.192;9.000;2022-12-16T02:57:16;15.10;;;7.97;;
61433;SDS011;47300;46.192;9.000;2022-12-16T03:00:01;15.45;;;8.10;;
61433;SDS011;47300;46.192;9.000;2022-12-16T03:05:28;16.05;;;8.40;;
61433;SDS011;47300;46.192;9.000;2022-12-16T03:07:57;16.60;;;7.78;;
61433;SDS011;47300;46.192;9.000;2022-12-16T03:10:27;19.38;;;8.07;;
61433;SDS011;47300;46.192;9.000;2022-12-16T03:12:57;20.10;;;9.32;;
61433;SDS011;47300;46.192;9.000;2022-12-16T03:15:24;19.73;;;9.63;;
61433;SDS011;47300;46.192;9.000;2022-12-16T03:17:53;18.15;;;9.77;;
61433;SDS011;47300;46.192;9.000;2022-12-16T03:20:28;20.10;;;9.40;;
61433;SDS011;47300;46.192;9.000;2022-12-16T03:23:00;16.92;;;9.32;;
61433;SDS011;47300;46.192;9.000;2022-12-16T03:25:30;21.35;;;9.40;;
61433;SDS011;47300;46.192;9.000;2022-12-16T03:30:26;14.55;;;7.18;;
61433;SDS011;47300;46.192;9.000;2022-12-16T03:35:48;12.40;;;7.13;;
61433;SDS011;47300;46.192;9.000;2022-12-16T03:38:18;10.55;;;5.55;;
61433;SDS011;47300;46.192;9.000;2022-12-16T03:40:45;15.52;;;6.72;;
61433;SDS011;47300;46.192;9.000;2022-12-16T03:43:12;15.18;;;6.63;;
61433;SDS011;47300;46.192;9.000;2022-12-16T03:45:40;15.27;;;7.75;;
61433;SDS011;47300;46.192;9.000;2022-12-16T03:48:08;9.93;;;5.55;;
61433;SDS011;47300;46.192;9.000;2022-12-16T03:50:36;9.07;;;4.93;;
61433;SDS011;47300;46.192;9.000;2022-12-16T03:53:02;11.50;;;4.85;;
61433;SDS011;47300;46.192;9.000;2022-12-16T03:55:29;9.95;;;4.05;;
61433;SDS011;47300;46.192;9.000;2022-12-16T03:57:54;7.05;;;3.35;;
61433;SDS011;47300;46.192;9.000;2022-12-16T04:00:21;12.63;;;5.93;;
61433;SDS011;47300;46.192;9.000;2022-12-16T04:02:46;8.63;;;4.57;;
61433;SDS011;47300;46.192;9.000;2022-12-16T04:05:11;5.90;;;2.42;;
61433;SDS011;47300;46.192;9.000;2022-12-16T04:07:37;7.72;;;3.95;;
61433;SDS011;47300;46.192;9.000;2022-12-16T04:10:02;9.80;;;5.53;;
61433;SDS011;47300;46.192;9.000;2022-12-16T04:12:28;12.55;;;5.68;;
61433;SDS011;47300;46.192;9.000;2022-12-16T04:15:12;9.10;;;4.07;;
61433;SDS011;47300;46.192;9.000;2022-12-16T04:17:56;5.18;;;2.58;;
61433;SDS011;47300;46.192;9.000;2022-12-16T04:20:44;3.40;;;1.23;;
61433;SDS011;47300;46.192;9.000;2022-12-16T04:23:31;15.18;;;7.88;;
61433;SDS011;47300;46.192;9.000;2022-12-16T04:26:17;18.80;;;8.02;;
61433;SDS011;47300;46.192;9.000;2022-12-16T04:28:43;18.15;;;7.60;;
61433;SDS011;47300;46.192;9.000;2022-12-16T04:31:09;12.25;;;5.95;;
61433;SDS011;47300;46.192;9.000;2022-12-16T04:33:35;8.60;;;4.05;;
61433;SDS011;47300;46.192;9.000;2022-12-16T04:36:19;13.63;;;4.68;;
61433;SDS011;47300;46.192;9.000;2022-12-16T04:39:03;8.85;;;4.25;;
61433;SDS011;47300;46.192;9.000;2022-12-16T04:41:47;12.95;;;6.00;;
61433;SDS011;47300;46.192;9.000;2022-12-16T04:44:34;12.68;;;7.28;;
61433;SDS011;47300;46.192;9.000;2022-12-16T04:47:18;14.15;;;7.95;;
61433;SDS011;47300;46.192;9.000;2022-12-16T04:50:02;12.65;;;6.25;;
61433;SDS011;47300;46.192;9.000;2022-12-16T04:52:49;12.55;;;6.38;;
61433;SDS011;47300;46.192;9.000;2022-12-16T04:55:33;15.75;;;6.65;;
61433;SDS011;47300;46.192;9.000;2022-12-16T04:58:17;13.82;;;7.70;;
61433;SDS011;47300;46.192;9.000;2022-12-16T05:01:01;12.95;;;6.47;;
61433;SDS011;47300;46.192;9.000;2022-12-16T05:03:45;19.38;;;8.35;;
61433;SDS011;47300;46.192;9.000;2022-12-16T05:06:29;15.38;;;8.50;;
61433;SDS011;47300;46.192;9.000;2022-12-16T05:09:13;16.42;;;6.82;;
61433;SDS011;47300;46.192;9.000;2022-12-16T05:11:57;16.73;;;8.10;;
61433;SDS011;47300;46.192;9.000;2022-12-16T05:14:41;18.95;;;8.70;;
61433;SDS011;47300;46.192;9.000;2022-12-16T05:17:25;14.52;;;8.15;;
61433;SDS011;47300;46.192;9.000;2022-12-16T05:20:09;20.48;;;10.07;;
61433;SDS011;47300;46.192;9.000;2022-12-16T05:22:56;17.83;;;7.53;;
61433;SDS011;47300;46.192;9.000;2022-12-16T05:25:41;11.77;;;6.60;;
61433;SDS011;47300;46.192;9.000;2022-12-16T05:28:25;13.05;;;5.65;;
61433;SDS011;47300;46.192;9.000;2022-12-16T05:31:09;11.90;;;5.80;;
61433;SDS011;47300;46.192;9.000;2022-12-16T05:33:53;10.35;;;5.78;;
61433;SDS011;47300;46.192;9.000;2022-12-16T05:36:37;11.00;;;5.90;;
61433;SDS011;47300;46.192;9.000;2022-12-16T05:39:21;10.88;;;6.03;;
61433;SDS011;47300;46.192;9.000;2022-12-16T05:42:05;8.07;;;4.22;;
61433;SDS011;47300;46.192;9.000;2022-12-16T05:44:49;12.30;;;5.97;;
61433;SDS011;47300;46.192;9.000;2022-12-16T05:47:33;12.68;;;6.88;;
61433;SDS011;47300;46.192;9.000;2022-12-16T05:50:17;19.20;;;10.93;;
61433;SDS011;47300;46.192;9.000;2022-12-16T05:53:01;13.20;;;7.30;;
61433;SDS011;47300;46.192;9.000;2022-12-16T05:55:44;10.13;;;5.20;;
61433;SDS011;47300;46.192;9.000;2022-12-16T05:58:28;13.57;;;7.32;;
61433;SDS011;47300;46.192;9.000;2022-12-16T06:01:12;11.18;;;5.82;;
61433;SDS011;47300;46.192;9.000;2022-12-16T06:03:57;10.73;;;5.90;;
61433;SDS011;47300;46.192;9.000;2022-12-16T06:06:41;9.77;;;5.85;;
61433;SDS011;47300;46.192;9.000;2022-12-16T06:09:25;12.52;;;6.22;;
61433;SDS011;47300;46.192;9.000;2022-12-16T06:12:09;10.60;;;5.25;;
61433;SDS011;47300;46.192;9.000;2022-12-16T06:14:53;17.67;;;9.23;;
61433;SDS011;47300;46.192;9.000;2022-12-16T06:17:40;12.27;;;6.22;;
61433;SDS011;47300;46.192;9.000;2022-12-16T06:20:27;11.70;;;6.00;;
61433;SDS011;47300;46.192;9.000;2022-12-16T06:23:10;10.05;;;4.00;;
61433;SDS011;47300;46.192;9.000;2022-12-16T06:25:55;7.40;;;3.60;;
61433;SDS011;47300;46.192;9.000;2022-12-16T06:28:39;5.65;;;2.70;;
61433;SDS011;47300;46.192;9.000;2022-12-16T06:31:23;5.65;;;2.65;;
61433;SDS011;47300;46.192;9.000;2022-12-16T06:34:07;10.98;;;5.60;;
61433;SDS011;47300;46.192;9.000;2022-12-16T06:36:51;11.52;;;4.93;;
61433;SDS011;47300;46.192;9.000;2022-12-16T06:39:35;8.60;;;3.92;;
61433;SDS011;47300;46.192;9.000;2022-12-16T06:42:19;8.73;;;3.95;;
61433;SDS011;47300;46.192;9.000;2022-12-16T06:45:03;13.23;;;7.90;;
61433;SDS011;47300;46.192;9.000;2022-12-16T06:47:47;19.33;;;8.25;;
61433;SDS011;47300;46.192;9.000;2022-12-16T06:50:31;21.45;;;8.57;;
61433;SDS011;47300;46.192;9.000;2022-12-16T06:53:15;21.80;;;9.75;;
61433;SDS011;47300;46.192;9.000;2022-12-16T06:55:59;20.50;;;9.77;;
61433;SDS011;47300;46.192;9.000;2022-12-16T06:58:43;30.40;;;11.20;;
61433;SDS011;47300;46.192;9.000;2022-12-16T07:01:26;23.88;;;11.68;;
61433;SDS011;47300;46.192;9.000;2022-12-16T07:04:11;16.67;;;7.63;;
61433;SDS011;47300;46.192;9.000;2022-12-16T07:06:55;8.05;;;3.45;;
61433;SDS011;47300;46.192;9.000;2022-12-16T07:09:39;54.13;;;25.80;;
61433;SDS011;47300;46.192;9.000;2022-12-16T07:12:23;27.35;;;12.07;;
61433;SDS011;47300;46.192;9.000;2022-12-16T07:15:07;24.45;;;9.40;;
61433;SDS011;47300;46.192;9.000;2022-12-16T07:17:51;19.02;;;10.13;;
61433;SDS011;47300;46.192;9.000;2022-12-16T07:20:35;36.30;;;20.35;;
61433;SDS011;47300;46.192;9.000;2022-12-16T07:23:19;23.85;;;10.75;;
61433;SDS011;47300;46.192;9.000;2022-12-16T07:26:17;16.10;;;8.43;;
61433;SDS011;47300;46.192;9.000;2022-12-16T07:29:01;26.92;;;9.50;;
61433;SDS011;47300;46.192;9.000;2022-12-16T07:31:45;19.40;;;9.25;;
61433;SDS011;47300;46.192;9.000;2022-12-16T07:34:29;16.13;;;8.25;;
61433;SDS011;47300;46.192;9.000;2022-12-16T07:37:13;19.83;;;11.48;;
61433;SDS011;47300;46.192;9.000;2022-12-16T07:39:57;20.45;;;11.00;;
61433;SDS011;47300;46.192;9.000;2022-12-16T07:42:41;12.73;;;5.78;;
61433;SDS011;47300;46.192;9.000;2022-12-16T07:45:25;20.35;;;8.45;;
61433;SDS011;47300;46.192;9.000;2022-12-16T07:48:09;15.80;;;8.23;;
61433;SDS011;47300;46.192;9.000;2022-12-16T07:50:53;18.38;;;8.02;;
61433;SDS011;47300;46.192;9.000;2022-12-16T07:53:37;26.10;;;12.57;;
61433;SDS011;47300;46.192;9.000;2022-12-16T07:56:21;15.60;;;7.80;;
61433;SDS011;47300;46.192;9.000;2022-12-16T07:59:05;14.15;;;6.38;;
61433;SDS011;47300;46.192;9.000;2022-12-16T08:01:49;22.58;;;7.00;;
61433;SDS011;47300;46.192;9.000;2022-12-16T08:04:33;24.30;;;11.48;;
61433;SDS011;47300;46.192;9.000;2022-12-16T08:07:17;17.80;;;8.68;;
61433;SDS011;47300;46.192;9.000;2022-12-16T08:10:01;32.08;;;11.45;;
61433;SDS011;47300;46.192;9.000;2022-12-16T08:12:45;21.90;;;8.93;;
61433;SDS011;47300;46.192;9.000;2022-12-16T08:15:29;15.82;;;8.43;;
61433;SDS011;47300;46.192;9.000;2022-12-16T08:18:13;20.65;;;8.10;;
61433;SDS011;47300;46.192;9.000;2022-12-16T08:20:57;23.33;;;9.23;;
61433;SDS011;47300;46.192;9.000;2022-12-16T08:23:41;10.60;;;4.57;;
61433;SDS011;47300;46.192;9.000;2022-12-16T08:26:25;25.25;;;12.07;;
61433;SDS011;47300;46.192;9.000;2022-12-16T08:29:10;72.28;;;27.55;;
61433;SDS011;47300;46.192;9.000;2022-12-16T08:31:54;66.25;;;26.90;;
61433;SDS011;47300;46.192;9.000;2022-12-16T08:34:38;21.13;;;9.10;;
61433;SDS011;47300;46.192;9.000;2022-12-16T08:37:22;17.77;;;8.75;;
61433;SDS011;47300;46.192;9.000;2022-12-16T08:40:05;20.67;;;8.40;;
61433;SDS011;47300;46.192;9.000;2022-12-16T08:42:50;18.08;;;8.43;;
61433;SDS011;47300;46.192;9.000;2022-12-16T08:45:34;13.95;;;7.47;;
61433;SDS011;47300;46.192;9.000;2022-12-16T08:48:18;43.65;;;29.27;;
61433;SDS011;47300;46.192;9.000;2022-12-16T08:51:03;59.42;;;35.08;;
61433;SDS011;47300;46.192;9.000;2022-12-16T08:53:48;22.98;;;11.27;;
61433;SDS011;47300;46.192;9.000;2022-12-16T08:56:33;19.63;;;10.15;;
61433;SDS011;47300;46.192;9.000;2022-12-16T08:59:17;19.85;;;8.48;;
61433;SDS011;47300;46.192;9.000;2022-12-16T09:02:01;17.45;;;10.15;;
61433;SDS011;47300;46.192;9.000;2022-12-16T09:04:45;23.83;;;11.02;;
61433;SDS011;47300;46.192;9.000;2022-12-16T09:07:29;23.00;;;11.68;;
61433;SDS011;47300;46.192;9.000;2022-12-16T09:10:13;23.27;;;12.48;;
61433;SDS011;47300;46.192;9.000;2022-12-16T09:13:08;18.52;;;9.75;;
61433;SDS011;47300;46.192;9.000;2022-12-16T09:15:53;20.83;;;7.97;;
61433;SDS011;47300;46.192;9.000;2022-12-16T09:18:37;12.63;;;5.82;;
61433;SDS011;47300;46.192;9.000;2022-12-16T09:21:21;20.35;;;9.57;;
61433;SDS011;47300;46.192;9.000;2022-12-16T09:24:05;17.02;;;8.73;;
61433;SDS011;47300;46.192;9.000;2022-12-16T09:26:49;15.70;;;7.60;;
61433;SDS011;47300;46.192;9.000;2022-12-16T09:29:33;16.58;;;7.10;;
61433;SDS011;47300;46.192;9.000;2022-12-16T09:32:17;14.43;;;7.15;;
61433;SDS011;47300;46.192;9.000;2022-12-16T09:35:02;13.02;;;7.00;;
61433;SDS011;47300;46.192;9.000;2022-12-16T09:37:59;13.47;;;6.37;;
61433;SDS011;47300;46.192;9.000;2022-12-16T09:40:43;18.08;;;10.00;;
61433;SDS011;47300;46.192;9.000;2022-12-16T09:47:02;16.85;;;8.52;;
61433;SDS011;47300;46.192;9.000;2022-12-16T09:49:57;16.25;;;9.40;;
61433;SDS011;47300;46.192;9.000;2022-12-16T09:52:46;14.30;;;8.10;;
61433;SDS011;47300;46.192;9.000;2022-12-16T09:55:40;15.35;;;8.35;;
61433;SDS011;47300;46.192;9.000;2022-12-16T09:58:32;31.00;;;17.70;;
61433;SDS011;47300;46.192;9.000;2022-12-16T10:01:20;15.63;;;8.00;;
61433;SDS011;47300;46.192;9.000;2022-12-16T10:04:08;27.60;;;14.65;;
61433;SDS011;47300;46.192;9.000;2022-12-16T10:07:16;24.93;;;12.93;;
61433;SDS011;47300;46.192;9.000;2022-12-16T10:13:20;27.00;;;13.00;;
61433;SDS011;47300;46.192;9.000;2022-12-16T10:25:13;40.25;;;16.48;;
61433;SDS011;47300;46.192;9.000;2022-12-16T10:28:45;36.88;;;19.20;;
61433;SDS011;47300;46.192;9.000;2022-12-16T10:31:15;43.17;;;20.83;;
61433;SDS011;47300;46.192;9.000;2022-12-16T10:33:59;33.67;;;18.05;;
61433;SDS011;47300;46.192;9.000;2022-12-16T10:36:45;40.70;;;17.55;;
61433;SDS011;47300;46.192;9.000;2022-12-16T10:39:33;42.65;;;17.38;;
61433;SDS011;47300;46.192;9.000;2022-12-16T10:45:18;30.52;;;16.20;;
61433;SDS011;47300;46.192;9.000;2022-12-16T10:48:07;44.78;;;16.42;;
61433;SDS011;47300;46.192;9.000;2022-12-16T10:50:53;36.97;;;17.52;;
61433;SDS011;47300;46.192;9.000;2022-12-16T10:53:37;35.25;;;16.05;;
61433;SDS011;47300;46.192;9.000;2022-12-16T10:56:24;31.08;;;15.55;;
61433;SDS011;47300;46.192;9.000;2022-12-16T10:59:33;38.50;;;16.92;;
61433;SDS011;47300;46.192;9.000;2022-12-16T11:02:20;28.40;;;15.02;;
61433;SDS011;47300;46.192;9.000;2022-12-16T11:05:28;30.98;;;14.57;;
61433;SDS011;47300;46.192;9.000;2022-12-16T11:11:11;30.17;;;16.85;;
61433;SDS011;47300;46.192;9.000;2022-12-16T11:14:15;39.17;;;21.08;;
61433;SDS011;47300;46.192;9.000;2022-12-16T11:20:23;33.00;;;15.75;;
61433;SDS011;47300;46.192;9.000;2022-12-16T11:23:22;33.58;;;16.42;;
61433;SDS011;47300;46.192;9.000;2022-12-16T11:26:16;54.08;;;27.20;;
61433;SDS011;47300;46.192;9.000;2022-12-16T11:31:50;40.53;;;21.25;;
61433;SDS011;47300;46.192;9.000;2022-12-16T11:34:38;46.97;;;21.70;;
61433;SDS011;47300;46.192;9.000;2022-12-16T11:37:24;25.98;;;12.15;;
61433;SDS011;47300;46.192;9.000;2022-12-16T11:40:12;37.47;;;14.27;;
61433;SDS011;47300;46.192;9.000;2022-12-16T11:43:00;24.80;;;10.70;;
61433;SDS011;47300;46.192;9.000;2022-12-16T11:45:46;21.65;;;10.48;;
61433;SDS011;47300;46.192;9.000;2022-12-16T11:48:37;21.00;;;10.45;;
61433;SDS011;47300;46.192;9.000;2022-12-16T11:51:27;35.33;;;12.60;;
61433;SDS011;47300;46.192;9.000;2022-12-16T11:54:35;39.50;;;18.73;;
61433;SDS011;47300;46.192;9.000;2022-12-16T11:57:23;29.17;;;14.93;;
61433;SDS011;47300;46.192;9.000;2022-12-16T12:00:14;26.27;;;10.65;;
61433;SDS011;47300;46.192;9.000;2022-12-16T12:03:04;28.13;;;11.30;;
61433;SDS011;47300;46.192;9.000;2022-12-16T12:09:20;34.10;;;20.08;;
61433;SDS011;47300;46.192;9.000;2022-12-16T12:12:13;23.30;;;10.48;;
61433;SDS011;47300;46.192;9.000;2022-12-16T12:15:12;29.83;;;10.65;;
61433;SDS011;47300;46.192;9.000;2022-12-16T12:30:08;40.42;;;24.80;;
61433;SDS011;47300;46.192;9.000;2022-12-16T12:36:22;21.05;;;12.40;;
61433;SDS011;47300;46.192;9.000;2022-12-16T12:42:31;23.60;;;14.55;;
61433;SDS011;47300;46.192;9.000;2022-12-16T12:45:47;41.75;;;23.33;;
61433;SDS011;47300;46.192;9.000;2022-12-16T12:55:21;23.77;;;13.38;;
61433;SDS011;47300;46.192;9.000;2022-12-16T12:58:19;29.33;;;16.65;;
61433;SDS011;47300;46.192;9.000;2022-12-16T13:01:03;19.38;;;10.85;;
61433;SDS011;47300;46.192;9.000;2022-12-16T13:03:55;22.13;;;11.75;;
61433;SDS011;47300;46.192;9.000;2022-12-16T13:06:44;18.88;;;9.50;;
61433;SDS011;47300;46.192;9.000;2022-12-16T13:09:30;18.10;;;9.98;;
61433;SDS011;47300;46.192;9.000;2022-12-16T13:15:06;23.40;;;9.85;;
61433;SDS011;47300;46.192;9.000;2022-12-16T13:20:43;21.85;;;11.43;;
61433;SDS011;47300;46.192;9.000;2022-12-16T13:26:20;33.10;;;13.98;;
61433;SDS011;47300;46.192;9.000;2022-12-16T13:29:20;25.33;;;14.00;;
61433;SDS011;47300;46.192;9.000;2022-12-16T13:37:54;21.67;;;12.02;;
61433;SDS011;47300;46.192;9.000;2022-12-16T13:40:51;36.63;;;15.90;;
61433;SDS011;47300;46.192;9.000;2022-12-16T13:43:43;34.58;;;15.20;;
61433;SDS011;47300;46.192;9.000;2022-12-16T13:55:56;20.25;;;10.15;;
61433;SDS011;47300;46.192;9.000;2022-12-16T13:58:49;32.17;;;12.88;;
61433;SDS011;47300;46.192;9.000;2022-12-16T14:01:37;19.38;;;9.52;;
61433;SDS011;47300;46.192;9.000;2022-12-16T14:04:50;24.38;;;11.68;;
61433;SDS011;47300;46.192;9.000;2022-12-16T14:07:39;20.75;;;10.93;;
61433;SDS011;47300;46.192;9.000;2022-12-16T14:19:32;18.13;;;9.60;;
61433;SDS011;47300;46.192;9.000;2022-12-16T14:23:11;17.13;;;8.23;;
61433;SDS011;47300;46.192;9.000;2022-12-16T14:25:54;26.02;;;12.27;;
61433;SDS011;47300;46.192;9.000;2022-12-16T14:28:40;25.45;;;12.88;;
61433;SDS011;47300;46.192;9.000;2022-12-16T14:31:26;25.10;;;12.90;;
61433;SDS011;47300;46.192;9.000;2022-12-16T14:37:12;21.77;;;11.73;;
61433;SDS011;47300;46.192;9.000;2022-12-16T14:39:59;27.42;;;12.32;;
61433;SDS011;47300;46.192;9.000;2022-12-16T14:42:43;18.88;;;12.00;;
61433;SDS011;47300;46.192;9.000;2022-12-16T14:57:22;22.88;;;11.82;;
61433;SDS011;47300;46.192;9.000;2022-12-16T15:05:50;28.67;;;14.60;;
61433;SDS011;47300;46.192;9.000;2022-12-16T15:08:38;26.85;;;14.95;;
61433;SDS011;47300;46.192;9.000;2022-12-16T15:11:39;55.33;;;28.50;;
61433;SDS011;47300;46.192;9.000;2022-12-16T15:14:30;38.88;;;20.38;;
61433;SDS011;47300;46.192;9.000;2022-12-16T15:20:27;27.45;;;14.80;;
61433;SDS011;47300;46.192;9.000;2022-12-16T15:26:15;21.35;;;13.02;;
61433;SDS011;47300;46.192;9.000;2022-12-16T15:29:26;18.30;;;10.05;;
61433;SDS011;47300;46.192;9.000;2022-12-16T15:35:07;22.33;;;10.77;;
61433;SDS011;47300;46.192;9.000;2022-12-16T15:37:51;20.80;;;9.73;;
61433;SDS011;47300;46.192;9.000;2022-12-16T15:40:35;23.20;;;9.40;;
61433;SDS011;47300;46.192;9.000;2022-12-16T15:43:29;35.58;;;17.90;;
61433;SDS011;47300;46.192;9.000;2022-12-16T15:46:19;20.38;;;9.48;;
61433;SDS011;47300;46.192;9.000;2022-12-16T15:49:13;29.35;;;16.50;;
61433;SDS011;47300;46.192;9.000;2022-12-16T15:51:58;46.97;;;17.02;;
61433;SDS011;47300;46.192;9.000;2022-12-16T15:54:50;32.15;;;15.25;;
61433;SDS011;47300;46.192;9.000;2022-12-16T15:57:36;25.30;;;10.82;;
61433;SDS011;47300;46.192;9.000;2022-12-16T16:00:28;14.05;;;7.53;;
61433;SDS011;47300;46.192;9.000;2022-12-16T16:03:17;13.05;;;5.88;;
61433;SDS011;47300;46.192;9.000;2022-12-16T16:06:01;10.82;;;5.35;;
61433;SDS011;47300;46.192;9.000;2022-12-16T16:08:49;11.88;;;4.57;;
61433;SDS011;47300;46.192;9.000;2022-12-16T16:11:50;8.20;;;4.45;;
61433;SDS011;47300;46.192;9.000;2022-12-16T16:14:35;11.23;;;4.18;;
61433;SDS011;47300;46.192;9.000;2022-12-16T16:17:20;8.48;;;3.65;;
61433;SDS011;47300;46.192;9.000;2022-12-16T16:20:05;7.90;;;3.10;;
61433;SDS011;47300;46.192;9.000;2022-12-16T16:22:50;10.57;;;4.18;;
61433;SDS011;47300;46.192;9.000;2022-12-16T16:25:34;6.75;;;2.63;;
61433;SDS011;47300;46.192;9.000;2022-12-16T16:28:18;6.03;;;3.15;;
61433;SDS011;47300;46.192;9.000;2022-12-16T16:31:02;7.75;;;2.83;;
61433;SDS011;47300;46.192;9.000;2022-12-16T16:33:46;5.53;;;2.90;;
61433;SDS011;47300;46.192;9.000;2022-12-16T16:36:37;6.32;;;2.53;;
61433;SDS011;47300;46.192;9.000;2022-12-16T16:39:22;7.35;;;2.90;;
61433;SDS011;47300;46.192;9.000;2022-12-16T16:42:06;20.45;;;9.00;;
61433;SDS011;47300;46.192;9.000;2022-12-16T16:44:51;12.85;;;6.70;;
61433;SDS011;47300;46.192;9.000;2022-12-16T16:47:35;12.52;;;7.70;;
61433;SDS011;47300;46.192;9.000;2022-12-16T16:50:19;12.25;;;6.50;;
61433;SDS011;47300;46.192;9.000;2022-12-16T16:53:03;12.60;;;4.55;;
61433;SDS011;47300;46.192;9.000;2022-12-16T16:55:49;9.70;;;4.95;;
61433;SDS011;47300;46.192;9.000;2022-12-16T17:01:20;8.80;;;4.13;;
61433;SDS011;47300;46.192;9.000;2022-12-16T17:04:04;8.88;;;3.90;;
61433;SDS011;47300;46.192;9.000;2022-12-16T17:06:48;9.15;;;3.30;;
61433;SDS011;47300;46.192;9.000;2022-12-16T17:09:32;10.18;;;3.10;;
61433;SDS011;47300;46.192;9.000;2022-12-16T17:12:20;13.65;;;7.50;;
61433;SDS011;47300;46.192;9.000;2022-12-16T17:18:00;8.05;;;2.78;;
61433;SDS011;47300;46.192;9.000;2022-12-16T17:20:44;5.25;;;2.35;;
61433;SDS011;47300;46.192;9.000;2022-12-16T17:23:28;12.52;;;5.60;;
61433;SDS011;47300;46.192;9.000;2022-12-16T17:26:12;8.68;;;3.92;;
61433;SDS011;47300;46.192;9.000;2022-12-16T17:28:56;7.47;;;4.05;;
61433;SDS011;47300;46.192;9.000;2022-12-16T17:31:40;8.40;;;3.15;;
61433;SDS011;47300;46.192;9.000;2022-12-16T17:34:23;10.55;;;4.57;;
61433;SDS011;47300;46.192;9.000;2022-12-16T17:37:07;8.55;;;3.40;;
61433;SDS011;47300;46.192;9.000;2022-12-16T17:39:52;6.10;;;3.13;;
61433;SDS011;47300;46.192;9.000;2022-12-16T17:42:35;9.32;;;5.43;;
61433;SDS011;47300;46.192;9.000;2022-12-16T17:45:19;9.18;;;4.78;;
61433;SDS011;47300;46.192;9.000;2022-12-16T17:48:03;17.00;;;8.68;;
61433;SDS011;47300;46.192;9.000;2022-12-16T17:50:47;14.43;;;7.18;;
61433;SDS011;47300;46.192;9.000;2022-12-16T17:53:31;11.57;;;5.57;;
61433;SDS011;47300;46.192;9.000;2022-12-16T17:56:15;12.52;;;7.68;;
61433;SDS011;47300;46.192;9.000;2022-12-16T17:58:59;34.90;;;21.35;;
61433;SDS011;47300;46.192;9.000;2022-12-16T18:01:43;12.75;;;6.03;;
61433;SDS011;47300;46.192;9.000;2022-12-16T18:04:27;11.65;;;4.40;;
61433;SDS011;47300;46.192;9.000;2022-12-16T18:07:11;19.63;;;8.52;;
61433;SDS011;47300;46.192;9.000;2022-12-16T18:09:55;24.17;;;10.07;;
61433;SDS011;47300;46.192;9.000;2022-12-16T18:12:39;16.23;;;7.20;;
61433;SDS011;47300;46.192;9.000;2022-12-16T18:15:37;14.23;;;7.75;;
61433;SDS011;47300;46.192;9.000;2022-12-16T18:18:21;9.35;;;4.60;;
61433;SDS011;47300;46.192;9.000;2022-12-16T18:21:08;15.00;;;9.05;;
61433;SDS011;47300;46.192;9.000;2022-12-16T18:23:53;60.90;;;34.10;;
61433;SDS011;47300;46.192;9.000;2022-12-16T18:26:37;13.48;;;6.78;;
61433;SDS011;47300;46.192;9.000;2022-12-16T18:29:21;5.57;;;2.45;;
61433;SDS011;47300;46.192;9.000;2022-12-16T18:32:05;11.25;;;5.63;;
61433;SDS011;47300;46.192;9.000;2022-12-16T18:34:49;14.85;;;6.75;;
61433;SDS011;47300;46.192;9.000;2022-12-16T18:37:33;31.55;;;15.93;;
61433;SDS011;47300;46.192;9.000;2022-12-16T18:40:17;23.55;;;12.02;;
61433;SDS011;47300;46.192;9.000;2022-12-16T18:43:01;27.17;;;15.00;;